Terminal Aerodrome Forecast
Issued by NWS

Home | Current Version | Previous Version | Text Only | Print | Product List | Glossary On
Versions: 1 2 3 4 5 6 7 8 9 10 11 12 13 14 15 16
294
FTUS43 KFGF 280520
TAFTVF
TAF
KTVF 280520Z 2806/2906 12004KT P6SM BKN120
     FM280900 00000KT P6SM BKN025
     FM281100 00000KT P6SM OVC025
     FM281200 00000KT P6SM OVC015
     FM281400 04005KT P6SM OVC020
     FM281600 03007KT P6SM VCSH OVC035
     FM281800 36007KT P6SM VCSH OVC040
      AMD LTD TO CLD VIS AND WIND=

USA.gov is the U.S. government's official web portal to all federal, state and local government web resources and services.